createdAt,value
2022-11-24T00:01:23.641Z,3.12
2022-11-24T00:04:00.469Z,3.11
2022-11-24T00:06:27.328Z,3.11
2022-11-24T00:08:54.260Z,3.10
2022-11-24T00:11:29.107Z,3.12
2022-11-24T00:13:55.809Z,3.11
2022-11-24T00:16:23.669Z,3.10
2022-11-24T00:18:51.612Z,3.11
2022-11-24T00:21:18.407Z,3.10
2022-11-24T00:23:45.043Z,3.12
2022-11-24T00:26:12.568Z,3.14
2022-11-24T00:28:39.329Z,3.16
2022-11-24T00:31:16.905Z,3.17
2022-11-24T00:33:43.871Z,3.18
2022-11-24T00:36:10.121Z,3.18
2022-11-24T00:38:36.351Z,3.18
2022-11-24T00:41:02.604Z,3.18
2022-11-24T00:43:28.828Z,3.18
2022-11-24T00:45:55.151Z,3.18
2022-11-24T00:48:21.773Z,3.18
2022-11-24T00:50:58.462Z,3.17
2022-11-24T00:53:25.310Z,3.17
2022-11-24T00:55:51.961Z,3.15
2022-11-24T00:58:18.367Z,3.15
2022-11-24T01:00:44.645Z,3.16
2022-11-24T01:03:12.242Z,3.16
2022-11-24T01:05:38.928Z,3.17
2022-11-24T01:08:05.451Z,3.17
2022-11-24T01:10:31.848Z,3.18
2022-11-24T01:12:58.121Z,3.21
2022-11-24T01:15:24.396Z,3.21
2022-11-24T01:17:50.654Z,3.21
2022-11-24T01:20:17.302Z,3.21
2022-11-24T01:22:43.640Z,3.21
2022-11-24T01:25:11.240Z,3.21
2022-11-24T01:27:38.152Z,3.20
2022-11-24T01:30:06.170Z,3.18
2022-11-24T01:32:36.205Z,3.14
2022-11-24T01:35:05.958Z,3.14
2022-11-24T01:37:32.315Z,3.11
2022-11-24T01:39:58.649Z,3.10
2022-11-24T01:42:25.102Z,3.09
2022-11-24T01:45:11.286Z,3.06
2022-11-24T01:47:40.767Z,3.05
2022-11-24T01:50:14.032Z,3.04
2022-11-24T01:52:43.463Z,3.04
2022-11-24T01:55:15.423Z,3.04
2022-11-24T01:57:44.315Z,3.02
2022-11-24T02:00:12.341Z,3.02
2022-11-24T02:02:39.331Z,3.01
2022-11-24T02:05:08.670Z,3.00
2022-11-24T02:07:36.421Z,2.97
2022-11-24T02:10:04.610Z,2.97
2022-11-24T02:12:31.393Z,2.96
2022-11-24T02:14:58.504Z,2.94
2022-11-24T02:17:24.920Z,2.92
2022-11-24T02:19:55.485Z,2.91
2022-11-24T02:22:33.753Z,2.91
2022-11-24T02:25:06.960Z,2.92
2022-11-24T02:27:33.245Z,2.92
2022-11-24T02:29:59.539Z,2.91
2022-11-24T02:32:26.765Z,2.93
2022-11-24T02:35:03.271Z,2.91
2022-11-24T02:37:29.564Z,2.92
2022-11-24T02:39:55.831Z,2.94
2022-11-24T02:42:22.493Z,2.93
2022-11-24T02:44:50.609Z,2.94
2022-11-24T02:47:16.898Z,2.92
2022-11-24T02:49:43.148Z,2.93
2022-11-24T02:52:09.406Z,2.94
2022-11-24T02:54:36.055Z,2.95
2022-11-24T02:57:02.640Z,2.97
2022-11-24T02:59:29.067Z,2.98
2022-11-24T03:01:55.469Z,2.98
2022-11-24T03:04:21.752Z,2.98
2022-11-24T03:06:48.022Z,2.99
2022-11-24T03:09:14.302Z,2.99
2022-11-24T03:11:40.569Z,3.01
2022-11-24T03:14:06.864Z,3.02
2022-11-24T03:16:33.275Z,3.02
2022-11-24T03:18:59.670Z,3.03
2022-11-24T03:21:25.980Z,3.02
2022-11-24T03:23:52.979Z,3.04
2022-11-24T03:26:21.060Z,3.05
2022-11-24T03:28:47.440Z,3.07
2022-11-24T03:31:14.230Z,3.08
2022-11-24T03:33:40.557Z,3.08
2022-11-24T03:36:07.670Z,3.09
2022-11-24T03:38:33.909Z,3.10
2022-11-24T03:41:00.159Z,3.13
2022-11-24T03:43:26.480Z,3.15
2022-11-24T03:45:52.711Z,3.17
2022-11-24T03:48:21.186Z,3.18
2022-11-24T03:50:54.783Z,3.21
2022-11-24T03:53:21.032Z,3.24
2022-11-24T03:55:47.743Z,3.28
2022-11-24T03:58:14.016Z,3.28
2022-11-24T04:00:40.343Z,3.30
2022-11-24T04:03:06.618Z,3.33
2022-11-24T04:05:33.409Z,3.34
2022-11-24T04:08:02.927Z,3.36
2022-11-24T04:10:30.144Z,3.40
2022-11-24T04:12:56.664Z,3.41
2022-11-24T04:15:22.949Z,3.43
2022-11-24T04:17:49.923Z,3.44
2022-11-24T04:20:16.823Z,3.45
2022-11-24T04:22:43.663Z,3.46
2022-11-24T04:25:11.888Z,3.49
2022-11-24T04:27:38.570Z,3.49
2022-11-24T04:30:06.672Z,3.52
2022-11-24T04:32:32.923Z,3.53
2022-11-24T04:34:59.157Z,3.56
2022-11-24T04:37:25.403Z,3.58
2022-11-24T04:39:51.648Z,3.60
2022-11-24T04:42:17.908Z,3.61
2022-11-24T04:44:44.168Z,3.64
2022-11-24T04:47:15.062Z,3.66
2022-11-24T04:49:41.311Z,3.68
2022-11-24T04:52:07.572Z,3.69
2022-11-24T04:54:34.083Z,3.70
2022-11-24T04:57:00.418Z,3.70
2022-11-24T04:59:26.785Z,3.69
2022-11-24T05:01:53.047Z,3.68
2022-11-24T05:04:21.319Z,3.68
2022-11-24T05:06:47.631Z,3.69
2022-11-24T05:09:15.902Z,3.72
2022-11-24T05:11:42.485Z,3.76
2022-11-24T05:14:08.718Z,3.76
2022-11-24T05:16:35.903Z,3.78
2022-11-24T05:19:02.253Z,3.80
2022-11-24T05:21:28.699Z,3.81
2022-11-24T05:23:54.985Z,3.80
2022-11-24T05:26:21.241Z,3.80
2022-11-24T05:28:47.509Z,3.83
2022-11-24T05:31:13.848Z,3.83
2022-11-24T05:33:40.744Z,3.84
2022-11-24T05:36:07.329Z,3.84
2022-11-24T05:38:33.762Z,3.83
2022-11-24T05:41:04.766Z,3.85
2022-11-24T05:43:31.437Z,3.85
2022-11-24T05:46:01.089Z,3.84
2022-11-24T05:48:27.611Z,3.85
2022-11-24T05:50:57.760Z,3.86
2022-11-24T05:53:25.599Z,3.89
2022-11-24T05:55:51.897Z,3.87
2022-11-24T05:58:18.166Z,3.88
2022-11-24T06:00:44.483Z,3.89
2022-11-24T06:03:11.156Z,3.88
2022-11-24T06:05:37.677Z,3.89
2022-11-24T06:08:04.042Z,3.90
2022-11-24T06:10:30.556Z,3.91
2022-11-24T06:12:56.831Z,3.93
2022-11-24T06:15:23.150Z,3.94
2022-11-24T06:17:53.529Z,3.96
2022-11-24T06:20:19.820Z,3.95
2022-11-24T06:22:46.077Z,3.97
2022-11-24T06:25:12.306Z,3.98
2022-11-24T06:27:38.562Z,3.98
2022-11-24T06:30:05.106Z,3.99
2022-11-24T06:32:31.503Z,3.98
2022-11-24T06:34:57.827Z,4.01
2022-11-24T06:37:24.100Z,4.00
2022-11-24T06:39:50.405Z,4.01
2022-11-24T06:42:21.402Z,4.03
2022-11-24T06:44:47.947Z,4.03
2022-11-24T06:47:14.674Z,4.04
2022-11-24T06:49:40.913Z,4.04
2022-11-24T06:52:07.228Z,4.05
2022-11-24T06:54:33.739Z,4.06
2022-11-24T06:57:00.239Z,4.04
2022-11-24T06:59:26.683Z,4.06
2022-11-24T07:01:53.207Z,4.06
2022-11-24T07:04:19.936Z,4.06
2022-11-24T07:06:46.203Z,4.07
2022-11-24T07:09:13.218Z,4.09
2022-11-24T07:11:39.933Z,4.08
2022-11-24T07:14:06.789Z,4.08
2022-11-24T07:16:33.683Z,4.10
2022-11-24T07:19:00.398Z,4.10
2022-11-24T07:21:27.760Z,4.11
2022-11-24T07:23:56.009Z,4.11
2022-11-24T07:26:22.766Z,4.13
2022-11-24T07:28:49.063Z,4.13
2022-11-24T07:31:18.688Z,4.14
2022-11-24T07:33:52.442Z,4.14
2022-11-24T07:36:18.818Z,4.16
2022-11-24T07:38:45.173Z,4.18
2022-11-24T07:41:12.465Z,4.20
2022-11-24T07:43:39.316Z,4.19
2022-11-24T07:46:06.400Z,4.20
2022-11-24T07:48:33.277Z,4.21
2022-11-24T07:51:00.482Z,4.24
2022-11-24T07:53:27.118Z,4.27
2022-11-24T07:55:54.763Z,4.28
2022-11-24T07:58:21.526Z,4.29
2022-11-24T08:00:47.805Z,4.32
2022-11-24T08:03:14.140Z,4.32
2022-11-24T08:06:00.736Z,4.34
2022-11-24T08:08:26.755Z,4.38
2022-11-24T08:10:53.000Z,4.38
2022-11-24T08:13:19.808Z,4.41
2022-11-24T08:15:46.074Z,4.45
2022-11-24T08:18:12.354Z,4.49
2022-11-24T08:20:38.654Z,4.50
2022-11-24T08:23:05.250Z,4.51
2022-11-24T08:25:32.655Z,4.55
2022-11-24T08:27:59.496Z,4.61
2022-11-24T08:30:25.832Z,4.64
2022-11-24T08:32:52.143Z,4.65
2022-11-24T08:35:18.520Z,4.64
2022-11-24T08:37:44.781Z,4.65
2022-11-24T08:40:11.377Z,4.67
2022-11-24T08:42:37.708Z,4.69
2022-11-24T08:45:19.322Z,4.73
2022-11-24T08:47:50.967Z,4.74
2022-11-24T08:50:17.310Z,4.76
2022-11-24T08:52:43.662Z,4.76
2022-11-24T08:55:09.930Z,4.78
2022-11-24T08:57:36.244Z,4.78
2022-11-24T09:00:03.623Z,4.79
2022-11-24T09:02:29.881Z,4.79
2022-11-24T09:04:56.134Z,4.81
2022-11-24T09:07:22.495Z,4.86
2022-11-24T09:09:48.782Z,4.90
2022-11-24T09:12:15.171Z,4.90
2022-11-24T09:14:41.438Z,4.92
2022-11-24T09:17:07.743Z,4.94
2022-11-24T09:19:34.318Z,4.99
2022-11-24T09:22:00.749Z,5.05
2022-11-24T09:24:27.014Z,5.06
2022-11-24T09:26:53.520Z,5.08
2022-11-24T09:29:19.777Z,5.10
2022-11-24T09:31:46.030Z,5.15
2022-11-24T09:34:14.508Z,5.13
2022-11-24T09:36:41.120Z,5.22
2022-11-24T09:39:07.462Z,5.31
2022-11-24T09:41:33.888Z,5.38
2022-11-24T09:44:26.770Z,5.42
2022-11-24T09:47:08.436Z,5.45
2022-11-24T09:49:38.871Z,5.48
2022-11-24T09:52:09.675Z,5.51
2022-11-24T09:54:38.360Z,5.60
2022-11-24T09:57:05.772Z,5.67
2022-11-24T09:59:32.565Z,5.70
2022-11-24T10:02:00.113Z,5.73
2022-11-24T10:04:33.901Z,5.77
2022-11-24T10:07:06.241Z,5.81
2022-11-24T10:09:32.939Z,5.85
2022-11-24T10:12:11.444Z,5.89
2022-11-24T10:14:46.915Z,5.89
2022-11-24T10:17:19.176Z,5.95
2022-11-24T10:19:52.311Z,5.96
2022-11-24T10:22:27.292Z,5.97
2022-11-24T10:25:01.278Z,5.98
2022-11-24T10:27:34.592Z,6.02
2022-11-24T10:30:01.400Z,6.03
2022-11-24T10:32:35.748Z,6.05
2022-11-24T10:35:19.850Z,6.05
2022-11-24T10:38:04.947Z,6.07
2022-11-24T10:40:59.621Z,6.09
2022-11-24T10:43:27.929Z,6.12
2022-11-24T10:46:08.187Z,6.18
2022-11-24T10:48:39.568Z,6.32
2022-11-24T10:51:22.802Z,6.44
2022-11-24T10:53:52.938Z,6.62
2022-11-24T10:56:19.214Z,6.69
2022-11-24T10:58:45.482Z,6.73
2022-11-24T11:01:14.870Z,6.88
2022-11-24T11:03:55.549Z,6.89
2022-11-24T11:06:23.657Z,6.92
2022-11-24T11:08:53.178Z,6.95
2022-11-24T11:11:26.854Z,7.02
2022-11-24T11:14:03.361Z,7.05
2022-11-24T11:16:30.026Z,7.08
2022-11-24T11:18:56.427Z,7.13
2022-11-24T11:21:36.651Z,7.12
2022-11-24T11:24:05.063Z,7.15
2022-11-24T11:26:32.968Z,7.25
2022-11-24T11:34:49.556Z,7.13
2022-11-24T11:37:16.634Z,7.09
2022-11-24T11:39:48.929Z,7.11
2022-11-24T11:45:23.014Z,7.20
2022-11-24T11:48:01.432Z,7.25
2022-11-24T11:50:47.413Z,7.21
2022-11-24T11:53:29.286Z,7.24
2022-11-24T11:55:58.296Z,7.16
2022-11-24T11:58:43.546Z,7.12
2022-11-24T12:01:16.573Z,7.14
2022-11-24T12:04:03.296Z,7.11
2022-11-24T12:06:29.724Z,7.20
2022-11-24T12:11:50.055Z,7.24
2022-11-24T12:14:16.299Z,7.25
2022-11-24T12:16:42.577Z,7.25
2022-11-24T12:19:17.902Z,7.24
2022-11-24T12:21:54.038Z,7.26
2022-11-24T12:24:29.750Z,7.21
2022-11-24T12:27:04.183Z,7.11
2022-11-24T12:29:39.731Z,7.09
2022-11-24T12:32:15.790Z,7.09
2022-11-24T12:34:55.541Z,7.11
2022-11-24T12:37:21.856Z,7.15
2022-11-24T12:40:11.116Z,7.15
2022-11-24T12:42:49.934Z,7.18
2022-11-24T12:45:18.250Z,7.23
2022-11-24T12:47:54.205Z,7.21
2022-11-24T12:50:23.859Z,7.21
2022-11-24T12:53:00.491Z,7.29
2022-11-24T12:55:27.804Z,7.29
2022-11-24T12:58:07.721Z,7.29
2022-11-24T13:00:44.458Z,7.33
2022-11-24T13:03:16.507Z,7.34
2022-11-24T13:05:50.051Z,7.28
2022-11-24T13:08:16.543Z,7.34
2022-11-24T13:10:58.420Z,7.40
2022-11-24T13:13:47.857Z,7.43
2022-11-24T13:19:07.145Z,7.43
2022-11-24T13:21:36.554Z,7.43
2022-11-24T13:24:04.898Z,7.43
2022-11-24T13:26:43.356Z,7.39
2022-11-24T13:29:28.233Z,7.44
2022-11-24T13:31:55.530Z,7.38
2022-11-24T13:34:40.378Z,7.36
2022-11-24T13:37:34.528Z,7.35
2022-11-24T13:40:14.385Z,7.33
2022-11-24T13:43:01.320Z,7.28
2022-11-24T13:45:40.696Z,7.26
2022-11-24T13:48:33.283Z,7.26
2022-11-24T13:51:01.409Z,7.22
2022-11-24T13:53:27.700Z,7.22
2022-11-24T13:56:00.064Z,7.23
2022-11-24T13:58:29.793Z,7.24
2022-11-24T14:01:00.767Z,7.18
2022-11-24T14:03:29.984Z,7.17
2022-11-24T14:05:56.793Z,7.18
2022-11-24T14:08:31.269Z,7.19
2022-11-24T14:10:58.590Z,7.11
2022-11-24T14:13:32.584Z,7.10
2022-11-24T14:16:00.022Z,7.08
2022-11-24T14:18:27.292Z,7.07
2022-11-24T14:20:53.589Z,7.03
2022-11-24T14:23:19.905Z,7.02
2022-11-24T14:25:50.179Z,7.01
2022-11-24T14:28:27.157Z,7.00
2022-11-24T14:31:09.722Z,7.00
2022-11-24T14:33:36.284Z,6.99
2022-11-24T14:36:02.664Z,6.99
2022-11-24T14:38:29.031Z,6.99
2022-11-24T14:40:55.751Z,6.99
2022-11-24T14:43:32.181Z,6.99
2022-11-24T14:46:03.664Z,6.98
2022-11-24T14:48:36.230Z,6.98
2022-11-24T14:51:13.068Z,6.98
2022-11-24T14:53:46.849Z,6.96
2022-11-24T14:56:22.534Z,6.93
2022-11-24T14:58:49.150Z,6.93
2022-11-24T15:01:27.489Z,6.89
2022-11-24T15:04:17.895Z,6.91
2022-11-24T15:07:02.288Z,6.92
2022-11-24T15:09:47.087Z,6.92
2022-11-24T15:12:19.459Z,6.92
2022-11-24T15:14:50.430Z,6.91
2022-11-24T15:17:18.155Z,6.90
2022-11-24T15:19:45.357Z,6.91
2022-11-24T15:22:30.481Z,6.89
2022-11-24T15:24:56.811Z,6.89
2022-11-24T15:27:23.135Z,6.90
2022-11-24T15:29:49.724Z,6.89
2022-11-24T15:32:16.244Z,6.89
2022-11-24T15:34:44.014Z,6.91
2022-11-24T15:37:10.382Z,6.89
2022-11-24T15:39:36.648Z,6.88
2022-11-24T15:42:02.948Z,6.87
2022-11-24T15:44:29.539Z,6.84
2022-11-24T15:46:55.832Z,6.84
2022-11-24T15:49:22.151Z,6.83
2022-11-24T15:51:48.504Z,6.81
2022-11-24T15:54:15.966Z,6.80
2022-11-24T15:56:42.361Z,6.78
2022-11-24T15:59:18.767Z,6.79
2022-11-24T16:01:49.518Z,6.75
2022-11-24T16:04:16.217Z,6.72
2022-11-24T16:06:42.462Z,6.66
2022-11-24T16:09:12.227Z,6.60
2022-11-24T16:11:38.491Z,6.50
2022-11-24T16:14:04.801Z,6.37
2022-11-24T16:16:31.133Z,6.31
2022-11-24T16:18:57.425Z,6.18
2022-11-24T16:21:23.701Z,6.05
2022-11-24T16:23:49.983Z,5.91
2022-11-24T16:26:16.247Z,5.76
2022-11-24T16:28:42.794Z,5.61
2022-11-24T16:31:09.136Z,5.55
2022-11-24T16:33:38.523Z,5.49
2022-11-24T16:36:04.870Z,5.38
2022-11-24T16:38:31.113Z,5.26
2022-11-24T16:40:57.443Z,5.15
2022-11-24T16:43:24.476Z,5.06
2022-11-24T16:46:03.013Z,4.99
2022-11-24T16:48:29.332Z,4.99
2022-11-24T16:50:55.570Z,5.03
2022-11-24T16:53:21.858Z,5.00
2022-11-24T16:55:56.391Z,4.94
2022-11-24T16:58:22.622Z,4.92
2022-11-24T17:00:48.985Z,4.95
2022-11-24T17:03:15.424Z,5.00
2022-11-24T17:05:41.698Z,5.03
2022-11-24T17:08:07.941Z,5.09
2022-11-24T17:10:37.847Z,5.11
2022-11-24T17:13:04.098Z,5.14
2022-11-24T17:15:34.590Z,5.14
2022-11-24T17:18:23.346Z,5.16
2022-11-24T17:20:49.190Z,5.19
2022-11-24T17:23:15.859Z,5.21
2022-11-24T17:25:42.200Z,5.24
2022-11-24T17:28:08.486Z,5.36
2022-11-24T17:30:36.549Z,5.41
2022-11-24T17:33:02.824Z,5.46
2022-11-24T17:35:29.094Z,5.58
2022-11-24T17:37:56.995Z,5.62
2022-11-24T17:40:30.455Z,5.67
2022-11-24T17:43:00.435Z,5.67
2022-11-24T17:45:27.081Z,5.59
2022-11-24T17:47:53.407Z,5.45
2022-11-24T17:50:25.196Z,5.42
2022-11-24T17:52:52.250Z,5.50
2022-11-24T17:55:18.511Z,5.66
2022-11-24T17:57:44.811Z,5.69
2022-11-24T18:00:11.456Z,5.59
2022-11-24T18:02:38.497Z,5.69
2022-11-24T18:05:04.985Z,5.62
2022-11-24T18:07:31.277Z,5.36
2022-11-24T18:09:57.721Z,5.15
2022-11-24T18:12:24.033Z,5.09
2022-11-24T18:14:50.380Z,4.93
2022-11-24T18:17:16.631Z,4.79
2022-11-24T18:19:42.913Z,4.76
2022-11-24T18:22:09.146Z,4.82
2022-11-24T18:24:35.431Z,4.83
2022-11-24T18:27:01.696Z,4.82
2022-11-24T18:29:27.941Z,4.88
2022-11-24T18:31:54.240Z,4.92
2022-11-24T18:34:20.745Z,4.99
2022-11-24T18:36:51.003Z,5.11
2022-11-24T18:39:18.144Z,5.13
2022-11-24T18:41:44.818Z,5.09
2022-11-24T18:44:11.049Z,5.07
2022-11-24T18:46:37.574Z,5.07
2022-11-24T18:49:04.012Z,5.08
2022-11-24T18:51:30.285Z,5.15
2022-11-24T18:56:29.089Z,5.22
2022-11-24T18:58:56.167Z,5.24
2022-11-24T19:01:24.188Z,5.28
2022-11-24T19:03:51.717Z,5.27
2022-11-24T19:06:18.058Z,5.27
2022-11-24T19:08:45.113Z,5.30
2022-11-24T19:11:21.505Z,5.33
2022-11-24T19:13:48.959Z,5.37
2022-11-24T19:16:15.927Z,5.38
2022-11-24T19:18:42.385Z,5.36
2022-11-24T19:21:08.976Z,5.32
2022-11-24T19:23:35.240Z,5.25
2022-11-24T19:26:02.226Z,5.15
2022-11-24T19:28:28.692Z,5.04
2022-11-24T19:30:59.448Z,5.01
2022-11-24T19:33:25.702Z,4.88
2022-11-24T19:36:02.430Z,4.77
2022-11-24T19:38:30.191Z,4.67
2022-11-24T19:41:03.821Z,4.60
2022-11-24T19:43:30.437Z,4.55
2022-11-24T19:46:00.675Z,4.49
2022-11-24T19:48:29.571Z,4.41
2022-11-24T19:51:02.560Z,4.38
2022-11-24T19:53:29.343Z,4.34
2022-11-24T19:55:56.089Z,4.27
2022-11-24T19:58:22.456Z,4.19
2022-11-24T20:00:48.744Z,4.09
2022-11-24T20:03:15.111Z,4.06
2022-11-24T20:05:41.370Z,4.03
2022-11-24T20:08:07.759Z,4.02
2022-11-24T20:10:34.000Z,3.99
2022-11-24T20:13:00.243Z,3.90
2022-11-24T20:15:30.556Z,3.79
2022-11-24T20:17:59.923Z,3.66
2022-11-24T20:20:26.338Z,3.58
2022-11-24T20:22:52.611Z,3.49
2022-11-24T20:25:18.947Z,3.43
2022-11-24T20:27:45.225Z,3.35
2022-11-24T20:30:11.567Z,3.26
2022-11-24T20:32:37.852Z,3.19
2022-11-24T20:35:04.228Z,3.12
2022-11-24T20:37:30.625Z,3.05
2022-11-24T20:39:58.854Z,2.99
2022-11-24T20:42:25.410Z,2.94
2022-11-24T20:44:51.688Z,2.89
2022-11-24T20:47:17.949Z,2.81
2022-11-24T20:49:44.204Z,2.71
2022-11-24T20:52:11.476Z,2.63
2022-11-24T20:54:38.771Z,2.58
2022-11-24T20:57:05.065Z,2.47
2022-11-24T20:59:31.316Z,2.42
2022-11-24T21:01:59.034Z,2.37
2022-11-24T21:04:26.303Z,2.32
2022-11-24T21:06:52.692Z,2.29
2022-11-24T21:09:19.053Z,2.24
2022-11-24T21:11:45.600Z,2.22
2022-11-24T21:14:12.193Z,2.16
2022-11-24T21:16:39.674Z,2.20
2022-11-24T21:19:08.732Z,2.22
2022-11-24T21:21:35.982Z,2.34
2022-11-24T21:24:07.055Z,2.48
2022-11-24T21:26:34.899Z,2.47
2022-11-24T21:29:01.185Z,2.31
2022-11-24T21:31:27.485Z,2.17
2022-11-24T21:33:54.150Z,2.02
2022-11-24T21:36:22.232Z,1.87
2022-11-24T21:38:56.088Z,1.78
2022-11-24T21:41:22.977Z,1.73
2022-11-24T21:43:49.892Z,1.71
2022-11-24T21:46:16.497Z,1.69
2022-11-24T21:48:42.886Z,1.71
2022-11-24T21:51:13.572Z,1.69
2022-11-24T21:53:41.047Z,1.72
2022-11-24T21:56:09.796Z,1.70
2022-11-24T21:58:36.657Z,1.65
2022-11-24T22:01:04.220Z,1.57
2022-11-24T22:03:30.513Z,1.60
2022-11-24T22:05:57.746Z,1.54
2022-11-24T22:08:24.683Z,1.51
2022-11-24T22:10:51.332Z,1.54
2022-11-24T22:13:18.772Z,1.53
2022-11-24T22:15:45.051Z,1.55
2022-11-24T22:18:12.213Z,1.60
2022-11-24T22:20:38.495Z,1.69
2022-11-24T22:23:04.825Z,1.79
2022-11-24T22:25:31.068Z,1.83
2022-11-24T22:27:58.199Z,1.92
2022-11-24T22:30:24.483Z,1.98
2022-11-24T22:32:50.863Z,2.05
2022-11-24T22:35:17.109Z,2.10
2022-11-24T22:37:43.352Z,2.07
2022-11-24T22:40:09.704Z,2.05
2022-11-24T22:42:35.948Z,2.08
2022-11-24T22:45:02.196Z,2.15
2022-11-24T22:47:28.461Z,2.18
2022-11-24T22:49:54.699Z,2.27
2022-11-24T22:52:21.168Z,2.35
2022-11-24T22:54:47.414Z,2.43
2022-11-24T22:57:13.663Z,2.49
2022-11-24T22:59:39.903Z,2.50
2022-11-24T23:02:06.154Z,2.51
2022-11-24T23:04:32.560Z,2.52
2022-11-24T23:06:58.867Z,2.50
2022-11-24T23:09:25.099Z,2.46
2022-11-24T23:11:51.347Z,2.47
2022-11-24T23:14:17.653Z,2.51
2022-11-24T23:16:44.018Z,2.51
2022-11-24T23:19:10.503Z,2.50
2022-11-24T23:21:40.555Z,2.53
2022-11-24T23:24:07.616Z,2.52
2022-11-24T23:26:38.130Z,2.52
2022-11-24T23:29:04.906Z,2.55
2022-11-24T23:31:31.428Z,2.56
2022-11-24T23:33:58.722Z,2.57
2022-11-24T23:36:25.395Z,2.59
2022-11-24T23:38:51.847Z,2.58
2022-11-24T23:41:19.442Z,2.59
2022-11-24T23:43:46.090Z,2.60
2022-11-24T23:46:16.592Z,2.60
2022-11-24T23:48:43.246Z,2.62
2022-11-24T23:51:22.957Z,2.63
2022-11-24T23:53:49.671Z,2.63
2022-11-24T23:56:19.917Z,2.64
2022-11-24T23:58:46.460Z,2.67
